createdAt,value
2016-04-27T00:00:11.685Z,0
2016-04-27T00:01:11.656Z,0
2016-04-27T00:02:11.643Z,0
2016-04-27T00:03:11.615Z,0
2016-04-27T00:04:11.618Z,0
2016-04-27T00:05:11.588Z,0
2016-04-27T00:06:13.763Z,0
2016-04-27T00:07:11.531Z,0
2016-04-27T00:08:11.519Z,0
2016-04-27T00:09:11.506Z,0
2016-04-27T00:10:11.492Z,0
2016-04-27T00:11:11.464Z,0
2016-04-27T00:12:11.451Z,0
2016-04-27T00:13:11.439Z,0
2016-04-27T00:14:11.409Z,0
2016-04-27T00:15:11.397Z,0
2016-04-27T00:16:11.367Z,0
2016-04-27T00:17:11.339Z,0
2016-04-27T00:18:11.327Z,0
2016-04-27T00:19:11.500Z,0
2016-04-27T00:20:15.254Z,0
2016-04-27T00:21:12.163Z,0
2016-04-27T00:22:13.291Z,0
2016-04-27T00:23:11.262Z,0
2016-04-27T00:24:11.202Z,0
2016-04-27T00:25:11.174Z,0
2016-04-27T00:26:11.160Z,0
2016-04-27T00:27:11.147Z,0
2016-04-27T00:28:11.119Z,0
2016-04-27T00:29:11.107Z,0
2016-04-27T00:30:11.077Z,0
2016-04-27T00:31:11.065Z,0
2016-04-27T00:32:11.036Z,0
2016-04-27T00:33:11.024Z,0
2016-04-27T00:34:11.026Z,0
2016-04-27T00:35:10.998Z,0
2016-04-27T00:36:11.062Z,0
2016-04-27T00:37:11.581Z,0
2016-04-27T00:38:10.943Z,0
2016-04-27T00:39:10.898Z,0
2016-04-27T00:40:10.998Z,0
2016-04-27T00:41:10.923Z,0
2016-04-27T00:42:11.057Z,0
2016-04-27T00:43:10.814Z,0
2016-04-27T00:44:11.174Z,0
2016-04-27T00:45:10.621Z,0
2016-04-27T00:46:10.749Z,0
2016-04-27T00:47:10.736Z,0
2016-04-27T00:48:10.707Z,0
2016-04-27T00:49:10.695Z,0
2016-04-27T00:50:10.666Z,0
2016-04-27T00:51:10.510Z,0
2016-04-27T00:52:13.296Z,0
2016-04-27T00:53:10.609Z,0
2016-04-27T00:54:10.910Z,0
2016-04-27T00:55:10.550Z,0
2016-04-27T00:56:10.554Z,0
2016-04-27T00:57:10.526Z,0
2016-04-27T00:58:10.513Z,0
2016-04-27T00:59:10.499Z,0
2016-04-27T01:00:10.472Z,0
2016-04-27T01:01:10.458Z,0
2016-04-27T01:02:10.430Z,0
2016-04-27T01:03:10.402Z,0
2016-04-27T01:04:10.372Z,0
2016-04-27T01:05:10.360Z,0
2016-04-27T01:06:10.549Z,0
2016-04-27T01:07:10.194Z,0
2016-04-27T01:08:10.305Z,0
2016-04-27T01:09:10.276Z,0
2016-04-27T01:10:10.264Z,0
2016-04-27T01:11:10.251Z,0
2016-04-27T01:12:10.206Z,0
2016-04-27T01:13:10.193Z,0
2016-04-27T01:14:10.181Z,0
2016-04-27T01:15:10.168Z,0
2016-04-27T01:16:10.139Z,0
2016-04-27T01:17:10.126Z,0
2016-04-27T01:18:10.098Z,0
2016-04-27T01:19:10.100Z,0
2016-04-27T01:20:10.056Z,0
2016-04-27T01:21:09.731Z,0
2016-04-27T01:22:10.379Z,0
2016-04-27T01:23:09.697Z,0
2016-04-27T01:24:09.980Z,0
2016-04-27T01:25:09.967Z,0
2016-04-27T01:26:09.924Z,0
2016-04-27T01:27:09.927Z,0
2016-04-27T01:28:10.272Z,0
2016-04-27T01:29:09.869Z,0
2016-04-27T01:30:09.856Z,0
2016-04-27T01:31:09.828Z,0
2016-04-27T01:32:09.799Z,0
2016-04-27T01:33:09.786Z,0
2016-04-27T01:34:09.711Z,0
2016-04-27T01:35:09.964Z,0
2016-04-27T01:36:10.060Z,0
2016-04-27T01:37:10.594Z,0
2016-04-27T01:38:09.691Z,0
2016-04-27T01:39:09.677Z,0
2016-04-27T01:40:09.649Z,0
2016-04-27T01:41:09.635Z,0
2016-04-27T01:42:09.607Z,0
2016-04-27T01:43:09.595Z,0
2016-04-27T01:44:09.565Z,0
2016-04-27T01:45:09.537Z,0
2016-04-27T01:46:09.509Z,0
2016-04-27T01:47:09.512Z,0
2016-04-27T01:48:09.826Z,0
2016-04-27T01:49:09.454Z,0
2016-04-27T01:50:09.443Z,0
2016-04-27T01:51:11.289Z,0
2016-04-27T01:52:08.885Z,0
2016-04-27T01:53:10.232Z,0
2016-04-27T01:54:09.360Z,0
2016-04-27T01:55:09.346Z,0
2016-04-27T01:56:09.317Z,0
2016-04-27T01:57:09.290Z,0
2016-04-27T01:58:09.839Z,0
2016-04-27T01:59:09.279Z,0
2016-04-27T02:00:09.234Z,0
2016-04-27T02:01:09.065Z,0
2016-04-27T02:02:09.193Z,0
2016-04-27T02:03:09.181Z,0
2016-04-27T02:04:09.152Z,0
2016-04-27T02:05:09.139Z,0
2016-04-27T02:06:10.173Z,0
2016-04-27T02:07:08.911Z,0
2016-04-27T02:08:09.084Z,0
2016-04-27T02:09:09.072Z,0
2016-04-27T02:10:09.044Z,0
2016-04-27T02:11:09.000Z,0
2016-04-27T02:12:09.002Z,0
2016-04-27T02:13:08.988Z,0
2016-04-27T02:14:08.960Z,0
2016-04-27T02:15:08.916Z,0
2016-04-27T02:16:08.918Z,0
2016-04-27T02:17:08.905Z,0
2016-04-27T02:18:10.049Z,0
2016-04-27T02:19:09.271Z,0
2016-04-27T02:20:08.851Z,0
2016-04-27T02:21:08.698Z,0
2016-04-27T02:22:08.560Z,0
2016-04-27T02:23:08.766Z,0
2016-04-27T02:24:08.752Z,0
2016-04-27T02:25:08.724Z,0
2016-04-27T02:26:08.712Z,0
2016-04-27T02:27:08.683Z,0
2016-04-27T02:28:08.669Z,0
2016-04-27T02:29:08.640Z,0
2016-04-27T02:30:08.629Z,0
2016-04-27T02:31:08.615Z,0
2016-04-27T02:32:08.586Z,0
2016-04-27T02:33:08.558Z,0
2016-04-27T02:34:08.545Z,0
2016-04-27T02:35:08.517Z,0
2016-04-27T02:36:09.238Z,0
2016-04-27T02:37:08.132Z,0
2016-04-27T02:38:08.493Z,0
2016-04-27T02:39:08.450Z,0
2016-04-27T02:40:08.436Z,0
2016-04-27T02:41:08.423Z,0
2016-04-27T02:42:08.380Z,0
2016-04-27T02:43:08.374Z,0
2016-04-27T02:44:08.387Z,0
2016-04-27T02:45:08.446Z,0
2016-04-27T02:46:08.430Z,0
2016-04-27T02:47:08.458Z,0
2016-04-27T02:48:08.497Z,0
2016-04-27T02:49:08.485Z,0
2016-04-27T02:50:08.472Z,0
2016-04-27T02:51:08.616Z,0
2016-04-27T02:52:08.586Z,0
2016-04-27T02:53:08.446Z,0
2016-04-27T02:54:08.423Z,0
2016-04-27T02:55:08.430Z,0
2016-04-27T02:56:08.439Z,0
2016-04-27T02:57:08.399Z,0
2016-04-27T02:58:08.407Z,0
2016-04-27T02:59:08.349Z,0
2016-04-27T03:00:08.324Z,0
2016-04-27T03:01:08.312Z,0
2016-04-27T03:02:08.285Z,0
2016-04-27T03:03:08.399Z,0
2016-04-27T03:04:08.277Z,0
2016-04-27T03:05:08.281Z,0
2016-04-27T03:06:08.300Z,0
2016-04-27T03:07:09.398Z,0
2016-04-27T03:08:08.197Z,0
2016-04-27T03:09:08.169Z,0
2016-04-27T03:10:08.142Z,0
2016-04-27T03:11:08.113Z,0
2016-04-27T03:12:08.116Z,0
2016-04-27T03:13:08.073Z,0
2016-04-27T03:14:08.076Z,0
2016-04-27T03:15:08.031Z,0
2016-04-27T03:16:08.017Z,0
2016-04-27T03:17:07.989Z,0
2016-04-27T03:18:07.976Z,0
2016-04-27T03:19:07.978Z,0
2016-04-27T03:20:07.950Z,0
2016-04-27T03:21:07.766Z,0
2016-04-27T03:22:08.206Z,0
2016-04-27T03:23:07.880Z,0
2016-04-27T03:24:07.852Z,0
2016-04-27T03:25:07.839Z,0
2016-04-27T03:26:07.811Z,0
2016-04-27T03:27:07.797Z,0
2016-04-27T03:28:07.784Z,0
2016-04-27T03:29:07.756Z,0
2016-04-27T03:30:07.727Z,0
2016-04-27T03:31:07.715Z,0
2016-04-27T03:32:07.702Z,0
2016-04-27T03:33:07.673Z,0
2016-04-27T03:34:07.644Z,0
2016-04-27T03:35:07.632Z,0
2016-04-27T03:36:07.649Z,0
2016-04-27T03:37:10.074Z,0
2016-04-27T03:38:07.562Z,0
2016-04-27T03:39:07.548Z,0
2016-04-27T03:40:06.785Z,0
2016-04-27T03:41:07.507Z,0
2016-04-27T03:42:07.478Z,0
2016-04-27T03:43:07.465Z,0
2016-04-27T03:44:07.453Z,0
2016-04-27T03:45:07.423Z,0
2016-04-27T03:46:07.426Z,0
2016-04-27T03:47:07.398Z,0
2016-04-27T03:48:07.417Z,0
2016-04-27T03:49:07.341Z,0
2016-04-27T03:50:07.328Z,0
2016-04-27T03:51:07.314Z,0
2016-04-27T03:52:10.428Z,0
2016-04-27T03:53:07.274Z,0
2016-04-27T03:54:07.245Z,0
2016-04-27T03:55:07.233Z,0
2016-04-27T03:56:07.219Z,0
2016-04-27T03:57:07.175Z,0
2016-04-27T03:58:07.177Z,0
2016-04-27T03:59:07.133Z,0
2016-04-27T04:00:07.121Z,0
2016-04-27T04:01:07.107Z,0
2016-04-27T04:02:07.079Z,0
2016-04-27T04:03:07.066Z,0
2016-04-27T04:04:07.054Z,0
2016-04-27T04:05:07.025Z,0
2016-04-27T04:06:06.997Z,0
2016-04-27T04:07:06.655Z,0
2016-04-27T04:08:06.815Z,0
2016-04-27T04:09:06.943Z,0
2016-04-27T04:10:06.946Z,0
2016-04-27T04:11:06.916Z,0
2016-04-27T04:12:06.873Z,0
2016-04-27T04:13:06.860Z,0
2016-04-27T04:14:06.690Z,0
2016-04-27T04:15:06.834Z,0
2016-04-27T04:16:06.633Z,0
2016-04-27T04:17:06.760Z,0
2016-04-27T04:18:06.749Z,0
2016-04-27T04:19:07.345Z,0
2016-04-27T04:20:06.723Z,0
2016-04-27T04:21:06.694Z,0
2016-04-27T04:22:06.510Z,0
2016-04-27T04:23:06.859Z,0
2016-04-27T04:24:06.643Z,0
2016-04-27T04:25:06.614Z,0
2016-04-27T04:26:06.585Z,0
2016-04-27T04:27:06.574Z,0
2016-04-27T04:28:06.544Z,0
2016-04-27T04:29:06.532Z,0
2016-04-27T04:30:06.503Z,0
2016-04-27T04:31:06.491Z,0
2016-04-27T04:32:06.477Z,0
2016-04-27T04:33:06.449Z,0
2016-04-27T04:34:06.420Z,0
2016-04-27T04:35:06.423Z,0
2016-04-27T04:36:06.393Z,0
2016-04-27T04:37:08.334Z,0
2016-04-27T04:38:06.337Z,0
2016-04-27T04:39:06.309Z,0
2016-04-27T04:40:06.295Z,0
2016-04-27T04:41:06.298Z,5
2016-04-27T04:42:06.254Z,0
2016-04-27T04:43:06.241Z,0
2016-04-27T04:44:06.229Z,5
2016-04-27T04:45:06.215Z,5
2016-04-27T04:46:06.187Z,5
2016-04-27T04:47:06.158Z,10
2016-04-27T04:48:06.161Z,5
2016-04-27T04:49:06.164Z,10
2016-04-27T04:50:06.119Z,5
2016-04-27T04:51:06.091Z,10
2016-04-27T04:52:06.078Z,10
2016-04-27T04:53:06.049Z,5
2016-04-27T04:54:06.022Z,10
2016-04-27T04:55:06.024Z,10
2016-04-27T04:56:06.026Z,10
2016-04-27T04:57:05.966Z,5
2016-04-27T04:58:05.938Z,5
2016-04-27T04:59:05.924Z,5
2016-04-27T05:00:05.880Z,10
2016-04-27T05:01:05.884Z,5
2016-04-27T05:02:05.871Z,10
2016-04-27T05:03:05.842Z,15
2016-04-27T05:04:05.829Z,15
2016-04-27T05:05:05.879Z,15
2016-04-27T05:06:05.819Z,10
2016-04-27T05:07:05.618Z,15
2016-04-27T05:08:05.730Z,15
2016-04-27T05:09:05.732Z,15
2016-04-27T05:10:05.704Z,15
2016-04-27T05:11:05.692Z,15
2016-04-27T05:12:05.663Z,15
2016-04-27T05:13:05.651Z,20
2016-04-27T05:14:05.606Z,30
2016-04-27T05:15:05.624Z,30
2016-04-27T05:16:05.595Z,35
2016-04-27T05:17:05.567Z,20
2016-04-27T05:18:05.756Z,15
2016-04-27T05:19:05.541Z,10
2016-04-27T05:20:05.497Z,10
2016-04-27T05:21:05.484Z,5
2016-04-27T05:22:05.487Z,5
2016-04-27T05:23:05.458Z,10
2016-04-27T05:24:05.430Z,5
2016-04-27T05:25:05.400Z,10
2016-04-27T05:26:05.403Z,10
2016-04-27T05:27:05.406Z,10
2016-04-27T05:28:05.346Z,10
2016-04-27T05:29:05.350Z,15
2016-04-27T05:30:05.321Z,25
2016-04-27T05:31:05.292Z,25
2016-04-27T05:32:05.264Z,25
2016-04-27T05:33:05.251Z,25
2016-04-27T05:34:05.238Z,30
2016-04-27T05:35:05.209Z,25
2016-04-27T05:36:05.180Z,25
2016-04-27T05:37:05.168Z,25
2016-04-27T05:38:05.171Z,25
2016-04-27T05:39:05.157Z,25
2016-04-27T05:40:06.332Z,30
2016-04-27T05:41:05.085Z,50
2016-04-27T05:42:05.071Z,50
2016-04-27T05:43:05.074Z,60
2016-04-27T05:44:05.264Z,60
2016-04-27T05:45:05.001Z,70
2016-04-27T05:46:04.973Z,55
2016-04-27T05:47:04.960Z,55
2016-04-27T05:48:04.979Z,50
2016-04-27T05:49:04.919Z,50
2016-04-27T05:50:04.922Z,45
2016-04-27T05:51:04.892Z,40
2016-04-27T05:52:04.427Z,55
2016-04-27T05:53:05.773Z,45
2016-04-27T05:54:04.823Z,50
2016-04-27T05:55:04.794Z,40
2016-04-27T05:56:04.797Z,35
2016-04-27T05:57:04.769Z,40
2016-04-27T05:58:04.740Z,45
2016-04-27T05:59:03.977Z,40
2016-04-27T06:00:04.699Z,45
2016-04-27T06:01:04.685Z,40
2016-04-27T06:02:04.672Z,35
2016-04-27T06:03:04.628Z,40
2016-04-27T06:04:04.616Z,60
2016-04-27T06:05:04.602Z,55
2016-04-27T06:06:04.574Z,50
2016-04-27T06:07:04.888Z,30
2016-04-27T06:08:06.985Z,40
2016-04-27T06:09:04.535Z,35
2016-04-27T06:10:04.350Z,25
2016-04-27T06:11:04.479Z,30
2016-04-27T06:12:04.481Z,30
2016-04-27T06:13:04.452Z,40
2016-04-27T06:14:04.424Z,25
2016-04-27T06:15:04.395Z,25
2016-04-27T06:16:04.382Z,30
2016-04-27T06:17:04.384Z,35
2016-04-27T06:18:04.325Z,40
2016-04-27T06:19:04.312Z,40
2016-04-27T06:20:04.502Z,45
2016-04-27T06:21:04.287Z,50
2016-04-27T06:22:04.820Z,65
2016-04-27T06:23:05.886Z,70
2016-04-27T06:24:04.201Z,95
2016-04-27T06:25:05.656Z,65
2016-04-27T06:26:04.175Z,45
2016-04-27T06:27:04.161Z,35
2016-04-27T06:28:04.133Z,45
2016-04-27T06:29:04.120Z,50
2016-04-27T06:30:04.091Z,50
2016-04-27T06:31:03.344Z,55
2016-04-27T06:32:04.050Z,60
2016-04-27T06:33:04.037Z,60
2016-04-27T06:34:04.024Z,50
2016-04-27T06:35:03.996Z,60
2016-04-27T06:36:04.013Z,60
2016-04-27T06:37:03.688Z,55
2016-04-27T06:38:04.706Z,55
2016-04-27T06:39:03.929Z,65
2016-04-27T06:40:03.899Z,95
2016-04-27T06:41:03.871Z,110
2016-04-27T06:42:03.858Z,85
2016-04-27T06:43:03.845Z,60
2016-04-27T06:44:03.801Z,60
2016-04-27T06:45:03.804Z,45
2016-04-27T06:46:03.775Z,55
2016-04-27T06:47:03.762Z,55
2016-04-27T06:48:03.734Z,55
2016-04-27T06:49:03.721Z,55
2016-04-27T06:50:03.709Z,50
2016-04-27T06:51:03.679Z,45
2016-04-27T06:52:04.603Z,35
2016-04-27T06:53:05.779Z,25
2016-04-27T06:54:03.656Z,25
2016-04-27T06:55:03.628Z,25
2016-04-27T06:56:03.583Z,30
2016-04-27T06:57:03.555Z,30
2016-04-27T06:58:03.542Z,30
2016-04-27T06:59:03.514Z,35
2016-04-27T07:00:03.500Z,30
2016-04-27T07:01:03.488Z,30
2016-04-27T07:02:03.475Z,25
2016-04-27T07:03:03.446Z,30
2016-04-27T07:04:03.433Z,25
2016-04-27T07:05:03.607Z,25
2016-04-27T07:06:03.376Z,30
2016-04-27T07:07:04.410Z,65
2016-04-27T07:08:03.600Z,70
2016-04-27T07:09:03.338Z,100
2016-04-27T07:10:03.308Z,140
2016-04-27T07:11:03.296Z,165
2016-04-27T07:12:03.268Z,120
2016-04-27T07:13:03.457Z,90
2016-04-27T07:14:03.273Z,75
2016-04-27T07:15:03.196Z,75
2016-04-27T07:16:03.184Z,95
2016-04-27T07:17:03.171Z,100
2016-04-27T07:18:03.143Z,135
2016-04-27T07:19:03.115Z,110
2016-04-27T07:20:03.117Z,80
2016-04-27T07:21:03.088Z,90
2016-04-27T07:22:03.215Z,105
2016-04-27T07:23:03.547Z,120
2016-04-27T07:24:03.033Z,145
2016-04-27T07:25:03.021Z,190
2016-04-27T07:26:02.992Z,215
2016-04-27T07:27:02.963Z,235
2016-04-27T07:28:02.951Z,200
2016-04-27T07:29:02.922Z,85
2016-04-27T07:30:02.908Z,70
2016-04-27T07:31:02.881Z,75
2016-04-27T07:32:02.867Z,95
2016-04-27T07:33:02.855Z,90
2016-04-27T07:34:02.842Z,65
2016-04-27T07:35:02.813Z,75
2016-04-27T07:36:02.800Z,80
2016-04-27T07:37:02.850Z,60
2016-04-27T07:38:02.602Z,50
2016-04-27T07:39:02.746Z,55
2016-04-27T07:40:02.733Z,65
2016-04-27T07:41:02.688Z,70
2016-04-27T07:42:02.676Z,85
2016-04-27T07:43:02.679Z,90
2016-04-27T07:44:02.650Z,55
2016-04-27T07:45:02.621Z,45
2016-04-27T07:46:02.608Z,60
2016-04-27T07:47:02.596Z,105
2016-04-27T07:48:02.583Z,105
2016-04-27T07:49:02.538Z,65
2016-04-27T07:50:02.541Z,85
2016-04-27T07:51:02.528Z,115
2016-04-27T07:52:02.203Z,125
2016-04-27T07:53:02.753Z,220
2016-04-27T07:54:02.458Z,220
2016-04-27T07:55:02.429Z,205
2016-04-27T07:56:02.432Z,215
2016-04-27T07:57:02.403Z,350
2016-04-27T07:58:02.375Z,375
2016-04-27T07:59:02.361Z,375
2016-04-27T08:00:02.364Z,355
2016-04-27T08:01:02.320Z,240
2016-04-27T08:02:02.308Z,240
2016-04-27T08:03:02.295Z,240
2016-04-27T08:04:02.266Z,220
2016-04-27T08:05:02.238Z,190
2016-04-27T08:06:02.224Z,175
2016-04-27T08:07:02.884Z,220
2016-04-27T08:08:02.902Z,225
2016-04-27T08:09:02.186Z,190
2016-04-27T08:10:02.173Z,220
2016-04-27T08:11:02.144Z,210
2016-04-27T08:12:02.147Z,215
2016-04-27T08:13:01.993Z,225
2016-04-27T08:14:02.090Z,250
2016-04-27T08:15:02.077Z,250
2016-04-27T08:16:02.049Z,225
2016-04-27T08:17:02.879Z,210
2016-04-27T08:18:02.023Z,210
2016-04-27T08:19:02.009Z,200
2016-04-27T08:20:02.029Z,190
2016-04-27T08:21:01.968Z,200
2016-04-27T08:22:02.377Z,220
2016-04-27T08:23:02.193Z,260
2016-04-27T08:24:01.898Z,290
2016-04-27T08:25:01.901Z,270
2016-04-27T08:26:01.731Z,280
2016-04-27T08:27:01.875Z,305
2016-04-27T08:28:01.830Z,260
2016-04-27T08:29:01.818Z,235
2016-04-27T08:30:01.805Z,185
2016-04-27T08:31:01.792Z,205
2016-04-27T08:32:01.764Z,265
2016-04-27T08:33:01.747Z,220
2016-04-27T08:34:01.751Z,245
2016-04-27T08:35:01.738Z,300
2016-04-27T08:36:01.708Z,1030
2016-04-27T08:37:02.634Z,760
2016-04-27T08:38:01.574Z,390
2016-04-27T08:39:01.655Z,655
2016-04-27T08:40:01.626Z,1100
2016-04-27T08:41:01.629Z,770
2016-04-27T08:42:01.600Z,1515
2016-04-27T08:43:01.602Z,1635
2016-04-27T08:44:01.558Z,2125
2016-04-27T08:45:01.576Z,2310
2016-04-27T08:46:01.564Z,2840
2016-04-27T08:47:02.270Z,300
2016-04-27T08:48:01.522Z,375
2016-04-27T08:49:01.494Z,350
2016-04-27T08:50:01.496Z,780
2016-04-27T08:51:01.468Z,620
2016-04-27T08:52:01.846Z,510
2016-04-27T08:53:01.473Z,1975
2016-04-27T08:54:01.429Z,405
2016-04-27T08:55:01.416Z,395
2016-04-27T08:56:01.404Z,300
2016-04-27T08:57:01.390Z,250
2016-04-27T08:58:01.408Z,205
2016-04-27T08:59:01.381Z,190
2016-04-27T09:00:01.336Z,220
2016-04-27T09:01:01.339Z,220
2016-04-27T09:02:01.325Z,215
2016-04-27T09:03:01.328Z,330
2016-04-27T09:04:01.300Z,465
2016-04-27T09:05:01.303Z,405
2016-04-27T09:06:01.274Z,350
2016-04-27T09:07:01.277Z,395
2016-04-27T09:08:02.514Z,360
2016-04-27T09:09:01.219Z,305
2016-04-27T09:10:01.222Z,280
2016-04-27T09:11:01.210Z,295
2016-04-27T09:12:01.353Z,305
2016-04-27T09:13:01.168Z,240
2016-04-27T09:14:01.013Z,220
2016-04-27T09:15:01.157Z,215
2016-04-27T09:16:00.973Z,220
2016-04-27T09:17:00.976Z,225
2016-04-27T09:18:01.104Z,210
2016-04-27T09:19:00.324Z,190
2016-04-27T09:20:01.077Z,190
2016-04-27T09:21:01.080Z,200
2016-04-27T09:22:01.864Z,230
2016-04-27T09:23:01.507Z,1075
2016-04-27T09:24:01.026Z,1495
2016-04-27T09:25:00.981Z,1355
2016-04-27T09:26:00.984Z,1860
2016-04-27T09:27:00.955Z,1140
2016-04-27T09:28:00.959Z,1695
2016-04-27T09:29:00.929Z,2005
2016-04-27T09:30:00.917Z,530
2016-04-27T09:31:00.903Z,1250
2016-04-27T09:32:02.703Z,1760
2016-04-27T09:33:00.894Z,825
2016-04-27T09:34:00.881Z,560
2016-04-27T09:35:00.883Z,470
2016-04-27T09:36:00.870Z,295
2016-04-27T09:37:00.936Z,295
2016-04-27T09:38:00.688Z,260
2016-04-27T09:39:00.831Z,210
2016-04-27T09:40:00.802Z,180
2016-04-27T09:41:00.791Z,175
2016-04-27T09:42:00.793Z,200
2016-04-27T09:43:00.764Z,320
2016-04-27T09:44:00.783Z,795
2016-04-27T09:45:00.738Z,750
2016-04-27T09:46:00.741Z,870
2016-04-27T09:47:02.041Z,1030
2016-04-27T09:48:00.746Z,1285
2016-04-27T09:49:00.702Z,505
2016-04-27T09:50:00.690Z,450
2016-04-27T09:51:00.708Z,435
2016-04-27T09:52:01.445Z,500
2016-04-27T09:53:02.729Z,540
2016-04-27T09:54:00.638Z,560
2016-04-27T09:55:00.624Z,540
2016-04-27T09:56:00.626Z,490
2016-04-27T09:57:01.021Z,1015
2016-04-27T09:58:00.586Z,1240
2016-04-27T09:59:00.573Z,795
2016-04-27T10:00:00.560Z,360
2016-04-27T10:01:00.562Z,445
2016-04-27T10:02:01.690Z,400
2016-04-27T10:03:00.537Z,400
2016-04-27T10:04:00.523Z,410
2016-04-27T10:05:00.495Z,670
2016-04-27T10:06:00.498Z,650
2016-04-27T10:07:05.126Z,710
2016-04-27T10:08:00.941Z,740
2016-04-27T10:09:00.474Z,910
2016-04-27T10:10:00.462Z,970
2016-04-27T10:11:00.433Z,770
2016-04-27T10:12:00.279Z,775
2016-04-27T10:13:00.423Z,830
2016-04-27T10:14:00.410Z,945
2016-04-27T10:15:00.397Z,1960
2016-04-27T10:16:00.399Z,1595
2016-04-27T10:17:00.638Z,1620
2016-04-27T10:18:00.358Z,650
2016-04-27T10:19:00.361Z,865
2016-04-27T10:20:00.552Z,620
2016-04-27T10:21:00.351Z,430
2016-04-27T10:22:00.733Z,525
2016-04-27T10:23:00.639Z,1125
2016-04-27T10:24:00.298Z,605
2016-04-27T10:25:00.316Z,1710
2016-04-27T10:26:00.289Z,1525
2016-04-27T10:27:02.431Z,2135
2016-04-27T10:28:00.262Z,2085
2016-04-27T10:29:00.266Z,2545
2016-04-27T10:30:00.284Z,920
2016-04-27T10:31:00.099Z,2245
2016-04-27T10:32:00.242Z,1800
2016-04-27T10:33:00.245Z,1600
2016-04-27T10:34:00.232Z,1850
2016-04-27T10:35:00.220Z,1770
2016-04-27T10:36:00.237Z,2100
2016-04-27T10:37:00.069Z,2285
2016-04-27T10:38:00.462Z,2390
2016-04-27T10:39:00.245Z,495
2016-04-27T10:40:00.186Z,2295
2016-04-27T10:41:00.204Z,2275
2016-04-27T10:42:04.301Z,2240
2016-04-27T10:43:00.194Z,2145
2016-04-27T10:44:00.525Z,2075
2016-04-27T10:45:00.277Z,2135
2016-04-27T10:46:03.405Z,1595
2016-04-27T10:46:59.924Z,2160
2016-04-27T10:48:00.177Z,2320
2016-04-27T10:49:00.163Z,2035
2016-04-27T10:50:00.166Z,485
2016-04-27T10:51:00.200Z,475
2016-04-27T10:52:00.530Z,985
2016-04-27T10:53:01.033Z,2455
2016-04-27T10:54:00.755Z,605
2016-04-27T10:55:00.149Z,2370
2016-04-27T10:56:00.151Z,2400
2016-04-27T10:57:01.934Z,1150
2016-04-27T10:58:00.157Z,1510
2016-04-27T10:59:00.128Z,2400
2016-04-27T11:00:00.131Z,2530
2016-04-27T11:01:00.152Z,2620
2016-04-27T11:02:02.249Z,1790
2016-04-27T11:03:00.111Z,2370
2016-04-27T11:04:00.099Z,2385
2016-04-27T11:05:00.117Z,2495
2016-04-27T11:06:00.119Z,720
2016-04-27T11:07:01.559Z,375
2016-04-27T11:08:00.922Z,245
2016-04-27T11:09:00.330Z,155
2016-04-27T11:10:00.099Z,105
2016-04-27T11:11:00.102Z,75
2016-04-27T11:12:01.151Z,60
2016-04-27T11:13:00.076Z,50
2016-04-27T11:14:00.094Z,40
2016-04-27T11:15:00.096Z,45
2016-04-27T11:16:00.084Z,55
2016-04-27T11:17:01.914Z,65
2016-04-27T11:18:00.058Z,70
2016-04-27T11:19:00.060Z,55
2016-04-27T11:20:00.532Z,40
2016-04-27T11:21:00.034Z,25
2016-04-27T11:22:01.397Z,20
2016-04-27T11:23:00.821Z,20
2016-04-27T11:24:00.589Z,15
2016-04-27T11:24:59.998Z,10
2016-04-27T11:25:59.986Z,10
2016-04-27T11:27:01.050Z,10
2016-04-27T11:27:59.991Z,10
2016-04-27T11:28:59.978Z,15
2016-04-27T11:29:59.809Z,20
2016-04-27T11:30:59.953Z,30
2016-04-27T11:31:59.939Z,80
2016-04-27T11:32:59.927Z,165
2016-04-27T11:33:59.913Z,220
2016-04-27T11:34:59.744Z,255
2016-04-27T11:35:59.888Z,280
2016-04-27T11:37:00.078Z,305
2016-04-27T11:37:59.706Z,310
2016-04-27T11:39:01.693Z,275
2016-04-27T11:39:59.851Z,275
2016-04-27T11:40:59.807Z,340
2016-04-27T11:41:59.794Z,380
2016-04-27T11:42:59.797Z,470
2016-04-27T11:43:59.815Z,300
2016-04-27T11:44:59.771Z,220
2016-04-27T11:45:59.742Z,220
2016-04-27T11:46:59.729Z,225
2016-04-27T11:47:59.732Z,225
2016-04-27T11:48:59.747Z,210
2016-04-27T11:49:59.779Z,230
2016-04-27T11:50:59.795Z,265
2016-04-27T11:51:59.843Z,285
2016-04-27T11:53:02.046Z,285
2016-04-27T11:53:59.733Z,265
2016-04-27T11:54:59.877Z,250
2016-04-27T11:55:59.912Z,235
2016-04-27T11:56:59.883Z,220
2016-04-27T11:57:59.871Z,200
2016-04-27T11:58:59.867Z,210
2016-04-27T11:59:59.860Z,225
2016-04-27T12:00:59.868Z,280
2016-04-27T12:01:59.845Z,335
2016-04-27T12:02:59.839Z,415
2016-04-27T12:03:59.877Z,405
2016-04-27T12:04:59.819Z,905
2016-04-27T12:05:59.824Z,1345
2016-04-27T12:06:59.781Z,1505
2016-04-27T12:07:59.427Z,1575
2016-04-27T12:09:01.712Z,1795
2016-04-27T12:09:59.763Z,1970
2016-04-27T12:10:59.752Z,1895
2016-04-27T12:11:59.755Z,1965
2016-04-27T12:12:59.773Z,2065
2016-04-27T12:13:59.012Z,2080
2016-04-27T12:14:59.733Z,1935
2016-04-27T12:15:59.736Z,905
2016-04-27T12:16:59.536Z,690
2016-04-27T12:17:59.742Z,505
2016-04-27T12:18:59.697Z,280
2016-04-27T12:19:59.905Z,225
2016-04-27T12:20:59.719Z,180
2016-04-27T12:21:59.502Z,150
2016-04-27T12:22:59.505Z,140
2016-04-27T12:24:03.837Z,160
2016-04-27T12:25:00.855Z,200
2016-04-27T12:25:59.686Z,250
2016-04-27T12:26:59.673Z,290
2016-04-27T12:27:59.644Z,335
2016-04-27T12:28:59.615Z,445
2016-04-27T12:30:01.868Z,590
2016-04-27T12:30:59.621Z,655
2016-04-27T12:31:59.624Z,785
2016-04-27T12:32:59.610Z,430
2016-04-27T12:33:59.598Z,285
2016-04-27T12:34:59.757Z,260
2016-04-27T12:35:59.540Z,245
2016-04-27T12:36:59.559Z,220
2016-04-27T12:37:59.499Z,200
2016-04-27T12:39:00.768Z,160
2016-04-27T12:39:59.521Z,140
2016-04-27T12:40:59.539Z,155
2016-04-27T12:41:59.495Z,195
2016-04-27T12:42:59.497Z,270
2016-04-27T12:43:59.469Z,305
2016-04-27T12:45:02.034Z,315
2016-04-27T12:45:59.474Z,310
2016-04-27T12:46:59.430Z,305
2016-04-27T12:47:59.448Z,330
2016-04-27T12:48:59.435Z,680
2016-04-27T12:50:01.313Z,1050
2016-04-27T12:50:59.441Z,910
2016-04-27T12:51:59.365Z,725
2016-04-27T12:53:01.836Z,735
2016-04-27T12:53:58.808Z,775
2016-04-27T12:55:00.857Z,935
2016-04-27T12:55:59.188Z,1205
2016-04-27T12:56:59.316Z,1740
2016-04-27T12:57:59.313Z,1995
2016-04-27T12:58:59.285Z,1145
2016-04-27T12:59:59.271Z,620
2016-04-27T13:00:59.273Z,465
2016-04-27T13:01:59.324Z,320
2016-04-27T13:02:59.295Z,275
2016-04-27T13:03:59.251Z,290
2016-04-27T13:04:59.301Z,1835
2016-04-27T13:05:59.225Z,2230
2016-04-27T13:06:59.227Z,2175
2016-04-27T13:07:59.652Z,2110
2016-04-27T13:08:59.327Z,2070
2016-04-27T13:09:59.220Z,2055
2016-04-27T13:10:59.083Z,2045
2016-04-27T13:11:59.054Z,2000
2016-04-27T13:12:59.166Z,1960
2016-04-27T13:13:59.169Z,1925
2016-04-27T13:14:59.156Z,1950
2016-04-27T13:15:59.189Z,1980
2016-04-27T13:16:59.036Z,2010
2016-04-27T13:17:59.148Z,1900
2016-04-27T13:18:58.995Z,1960
2016-04-27T13:19:59.138Z,1705
2016-04-27T13:20:59.156Z,1350
2016-04-27T13:21:59.143Z,665
2016-04-27T13:23:00.521Z,335
2016-04-27T13:24:00.258Z,315
2016-04-27T13:24:59.151Z,550
2016-04-27T13:25:59.138Z,385
2016-04-27T13:26:59.110Z,450
2016-04-27T13:27:59.113Z,2115
2016-04-27T13:28:59.099Z,2080
2016-04-27T13:29:59.102Z,1825
2016-04-27T13:30:59.104Z,1955
2016-04-27T13:31:59.139Z,1970
2016-04-27T13:32:59.126Z,1980
2016-04-27T13:33:59.097Z,1790
2016-04-27T13:34:59.100Z,555
2016-04-27T13:35:59.103Z,605
2016-04-27T13:36:59.153Z,450
2016-04-27T13:37:59.092Z,405
2016-04-27T13:38:58.892Z,490
2016-04-27T13:39:59.098Z,485
2016-04-27T13:40:59.069Z,405
2016-04-27T13:41:59.042Z,405
2016-04-27T13:42:59.075Z,405
2016-04-27T13:43:59.078Z,380
2016-04-27T13:44:59.080Z,415
2016-04-27T13:45:59.051Z,1420
2016-04-27T13:46:59.055Z,1170
2016-04-27T13:47:59.041Z,1195
2016-04-27T13:48:59.027Z,1130
2016-04-27T13:49:59.016Z,1145
2016-04-27T13:50:59.018Z,405
2016-04-27T13:51:59.005Z,365
2016-04-27T13:52:58.899Z,345
2016-04-27T13:53:58.823Z,325
2016-04-27T13:54:58.982Z,320
2016-04-27T13:55:58.985Z,360
2016-04-27T13:56:58.972Z,1220
2016-04-27T13:57:58.974Z,335
2016-04-27T13:58:59.227Z,435
2016-04-27T13:59:58.964Z,325
2016-04-27T14:00:59.076Z,1075
2016-04-27T14:01:58.937Z,600
2016-04-27T14:02:58.972Z,315
2016-04-27T14:03:58.960Z,310
2016-04-27T14:04:58.931Z,320
2016-04-27T14:05:58.948Z,860
2016-04-27T14:06:58.904Z,385
2016-04-27T14:07:58.954Z,445
2016-04-27T14:08:59.910Z,575